createdAt,value
2019-05-21T00:00:31.545Z,13.83
2019-05-21T00:03:36.718Z,13.84
2019-05-21T00:06:41.766Z,13.81
2019-05-21T00:09:46.890Z,13.92
2019-05-21T00:12:51.960Z,13.92
2019-05-21T00:15:57.032Z,13.88
2019-05-21T00:19:02.138Z,13.87
2019-05-21T00:22:07.274Z,13.84
2019-05-21T00:25:16.743Z,13.81
2019-05-21T00:28:39.930Z,13.81
2019-05-21T00:32:21.334Z,13.71
2019-05-21T00:36:02.462Z,13.75
2019-05-21T00:39:43.676Z,13.74
2019-05-21T00:42:48.928Z,13.69
2019-05-21T00:45:54.078Z,13.76
2019-05-21T00:48:59.252Z,13.70
2019-05-21T00:52:08.553Z,13.74
2019-05-21T00:55:11.601Z,13.69
2019-05-21T00:58:16.743Z,13.67
2019-05-21T01:01:22.076Z,13.65
2019-05-21T01:04:27.196Z,13.68
2019-05-21T01:07:32.396Z,13.65
2019-05-21T01:10:37.536Z,13.64
2019-05-21T01:13:42.732Z,13.63
2019-05-21T01:16:47.845Z,13.53
2019-05-21T01:19:53.017Z,13.55
2019-05-21T01:22:58.739Z,13.49
2019-05-21T01:26:03.902Z,13.52
2019-05-21T01:29:09.069Z,13.48
2019-05-21T01:32:14.260Z,13.56
2019-05-21T01:35:19.406Z,13.56
2019-05-21T01:38:24.512Z,13.60
2019-05-21T01:41:29.815Z,13.65
2019-05-21T01:44:35.009Z,13.60
2019-05-21T01:47:40.312Z,13.59
2019-05-21T01:50:45.624Z,13.57
2019-05-21T01:53:50.829Z,13.52
2019-05-21T01:56:56.002Z,13.53
2019-05-21T02:00:01.254Z,13.39
2019-05-21T02:03:06.385Z,13.43
2019-05-21T02:06:11.557Z,13.48
2019-05-21T02:09:16.730Z,13.46
2019-05-21T02:12:21.915Z,13.41
2019-05-21T02:15:27.041Z,13.46
2019-05-21T02:18:32.278Z,13.38
2019-05-21T02:21:37.398Z,13.38
2019-05-21T02:24:42.562Z,13.45
2019-05-21T02:27:47.743Z,13.44
2019-05-21T02:30:56.452Z,13.38
2019-05-21T02:34:00.003Z,13.50
2019-05-21T02:37:06.316Z,13.45
2019-05-21T02:40:15.121Z,13.41
2019-05-21T02:43:20.223Z,13.43
2019-05-21T02:46:25.361Z,13.42
2019-05-21T02:49:30.565Z,13.35
2019-05-21T02:52:35.723Z,13.29
2019-05-21T02:55:40.904Z,13.30
2019-05-21T02:58:46.134Z,13.39
2019-05-21T03:02:00.513Z,13.29
2019-05-21T03:05:06.405Z,13.30
2019-05-21T03:08:11.552Z,13.40
2019-05-21T03:11:16.840Z,13.31
2019-05-21T03:14:22.060Z,13.30
2019-05-21T03:17:27.207Z,13.31
2019-05-21T03:20:32.372Z,13.20
2019-05-21T03:23:37.562Z,13.17
2019-05-21T03:26:42.677Z,13.30
2019-05-21T03:29:47.833Z,13.26
2019-05-21T03:32:52.952Z,13.23
2019-05-21T03:35:58.199Z,13.32
2019-05-21T03:39:04.023Z,13.29
2019-05-21T03:42:09.219Z,13.29
2019-05-21T03:45:14.413Z,13.33
2019-05-21T03:48:19.584Z,13.13
2019-05-21T03:51:24.820Z,13.25
2019-05-21T03:54:29.939Z,13.19
2019-05-21T03:57:35.194Z,13.30
2019-05-21T04:00:40.323Z,13.18
2019-05-21T04:03:45.481Z,13.33
2019-05-21T04:06:52.575Z,13.24
2019-05-21T04:09:57.529Z,13.12
2019-05-21T04:13:06.683Z,13.07
2019-05-21T04:16:18.224Z,13.15
2019-05-21T04:19:26.877Z,13.15
2019-05-21T04:22:31.990Z,13.24
2019-05-21T04:25:37.131Z,13.13
2019-05-21T04:28:42.325Z,13.12
2019-05-21T04:31:47.455Z,13.07
2019-05-21T04:34:52.594Z,13.15
2019-05-21T04:37:57.712Z,13.12
2019-05-21T04:41:03.009Z,13.14
2019-05-21T04:44:08.147Z,13.13
2019-05-21T04:47:13.407Z,13.21
2019-05-21T04:50:20.261Z,13.25
2019-05-21T04:53:25.452Z,13.25
2019-05-21T04:56:30.589Z,13.23
2019-05-21T04:59:36.999Z,13.28
2019-05-21T05:02:42.178Z,13.24
2019-05-21T05:05:48.508Z,13.16
2019-05-21T05:08:53.771Z,13.18
2019-05-21T05:11:59.243Z,13.20
2019-05-21T05:15:05.347Z,13.33
2019-05-21T05:18:10.488Z,13.23
2019-05-21T05:21:15.695Z,13.24
2019-05-21T05:24:20.978Z,13.31
2019-05-21T05:27:26.237Z,13.28
2019-05-21T05:30:31.405Z,13.28
2019-05-21T05:33:36.467Z,13.20
2019-05-21T05:36:41.688Z,13.21
2019-05-21T05:39:46.934Z,13.25
2019-05-21T05:42:52.271Z,13.14
2019-05-21T05:45:57.483Z,13.11
2019-05-21T05:49:08.737Z,13.18
2019-05-21T05:52:13.926Z,13.16
2019-05-21T05:55:19.181Z,13.19
2019-05-21T05:58:24.467Z,13.18
2019-05-21T06:01:31.373Z,13.05
2019-05-21T06:04:36.638Z,13.09
2019-05-21T06:07:41.967Z,13.22
2019-05-21T06:10:47.087Z,13.31
2019-05-21T06:13:52.264Z,13.36
2019-05-21T06:16:57.395Z,13.61
2019-05-21T06:20:02.581Z,13.82
2019-05-21T06:23:07.719Z,13.96
2019-05-21T06:26:12.878Z,14.10
2019-05-21T06:29:18.091Z,14.26
2019-05-21T06:32:23.221Z,14.31
2019-05-21T06:35:28.357Z,14.32
2019-05-21T06:38:33.500Z,14.39
2019-05-21T06:41:38.632Z,14.27
2019-05-21T06:44:44.866Z,14.09
2019-05-21T06:47:50.067Z,14.18
2019-05-21T06:50:55.190Z,14.08
2019-05-21T06:54:00.395Z,14.05
2019-05-21T06:57:05.625Z,14.05
2019-05-21T07:00:11.283Z,14.03
2019-05-21T07:03:16.432Z,13.96
2019-05-21T07:06:22.465Z,13.91
2019-05-21T07:09:27.595Z,13.83
2019-05-21T07:12:32.738Z,13.90
2019-05-21T07:15:37.888Z,13.79
2019-05-21T07:18:43.018Z,13.76
2019-05-21T07:21:49.159Z,13.68
2019-05-21T07:24:55.189Z,13.66
2019-05-21T07:28:00.501Z,13.74
2019-05-21T07:31:05.646Z,13.75
2019-05-21T07:34:10.771Z,13.80
2019-05-21T07:37:15.944Z,14.03
2019-05-21T07:40:21.195Z,14.13
2019-05-21T07:43:26.539Z,14.21
2019-05-21T07:46:31.746Z,14.07
2019-05-21T07:49:36.967Z,14.05
2019-05-21T07:52:42.156Z,14.02
2019-05-21T07:55:47.340Z,14.18
2019-05-21T07:58:53.670Z,14.22
2019-05-21T08:01:58.858Z,14.11
2019-05-21T08:05:04.323Z,14.04
2019-05-21T08:08:09.502Z,13.94
2019-05-21T08:11:14.716Z,13.87
2019-05-21T08:14:19.962Z,13.92
2019-05-21T08:17:25.157Z,13.94
2019-05-21T08:20:30.539Z,13.94
2019-05-21T08:23:35.712Z,14.09
2019-05-21T08:26:40.933Z,14.11
2019-05-21T08:29:46.076Z,14.16
2019-05-21T08:32:51.198Z,14.08
2019-05-21T08:35:57.299Z,14.00
2019-05-21T08:39:02.476Z,14.09
2019-05-21T08:42:07.919Z,14.17
2019-05-21T08:45:13.995Z,14.02
2019-05-21T08:48:19.121Z,14.03
2019-05-21T08:51:24.296Z,13.99
2019-05-21T08:54:56.444Z,14.02
2019-05-21T08:58:06.885Z,14.15
2019-05-21T09:01:08.274Z,14.41
2019-05-21T09:04:13.522Z,14.39
2019-05-21T09:07:18.735Z,14.44
2019-05-21T09:10:23.867Z,14.55
2019-05-21T09:13:29.060Z,14.78
2019-05-21T09:16:34.386Z,14.84
2019-05-21T09:19:39.593Z,15.04
2019-05-21T09:22:44.848Z,15.00
2019-05-21T09:25:50.077Z,14.97
2019-05-21T09:28:55.194Z,14.80
2019-05-21T09:32:00.402Z,14.83
2019-05-21T09:35:06.435Z,14.97
2019-05-21T09:38:11.580Z,15.38
2019-05-21T09:41:16.729Z,15.68
2019-05-21T09:44:21.931Z,15.56
2019-05-21T09:47:27.137Z,15.45
2019-05-21T09:50:32.282Z,15.15
2019-05-21T09:53:37.457Z,15.03
2019-05-21T09:56:42.649Z,14.95
2019-05-21T10:00:02.488Z,14.89
2019-05-21T10:03:11.923Z,14.76
2019-05-21T10:06:17.075Z,14.69
2019-05-21T10:09:22.236Z,14.70
2019-05-21T10:12:27.373Z,14.63
2019-05-21T10:15:32.642Z,14.49
2019-05-21T10:18:37.936Z,14.51
2019-05-21T10:21:43.113Z,14.56
2019-05-21T10:24:48.390Z,14.59
2019-05-21T10:27:53.570Z,14.60
2019-05-21T10:30:58.769Z,14.65
2019-05-21T10:34:05.174Z,14.75
2019-05-21T10:37:10.372Z,14.71
2019-05-21T10:40:15.995Z,14.68
2019-05-21T10:43:21.213Z,14.55
2019-05-21T10:46:26.454Z,14.59
2019-05-21T10:49:31.628Z,14.50
2019-05-21T10:52:36.763Z,14.51
2019-05-21T10:55:41.967Z,14.66
2019-05-21T10:58:47.147Z,14.91
2019-05-21T11:02:10.054Z,15.03
2019-05-21T11:05:19.734Z,15.08
2019-05-21T11:08:25.519Z,15.19
2019-05-21T11:11:30.888Z,15.21
2019-05-21T11:14:36.019Z,15.40
2019-05-21T11:17:58.984Z,15.53
2019-05-21T11:20:48.025Z,15.59
2019-05-21T11:23:53.268Z,15.91
2019-05-21T11:26:58.659Z,16.15
2019-05-21T11:30:04.234Z,16.48
2019-05-21T11:33:09.764Z,16.98
2019-05-21T11:36:15.390Z,17.06
2019-05-21T11:39:20.578Z,17.28
2019-05-21T11:42:25.799Z,16.93
2019-05-21T11:45:32.988Z,17.07
2019-05-21T11:48:39.077Z,16.99
2019-05-21T11:51:44.184Z,17.04
2019-05-21T11:54:49.328Z,17.36
2019-05-21T11:57:54.472Z,17.35
2019-05-21T12:00:59.636Z,17.46
2019-05-21T12:04:04.870Z,17.22
2019-05-21T12:07:10.132Z,17.04
2019-05-21T12:10:15.274Z,16.89
2019-05-21T12:13:20.831Z,16.80
2019-05-21T12:16:26.033Z,16.78
2019-05-21T12:19:31.235Z,16.68
2019-05-21T12:22:36.401Z,16.50
2019-05-21T12:25:41.574Z,16.23
2019-05-21T12:28:46.822Z,16.45
2019-05-21T12:31:52.031Z,16.07
2019-05-21T12:34:57.224Z,15.96
2019-05-21T12:38:02.526Z,15.90
2019-05-21T12:41:07.750Z,15.92
2019-05-21T12:44:12.931Z,15.76
2019-05-21T12:47:18.113Z,15.88
2019-05-21T12:50:25.004Z,15.89
2019-05-21T12:53:30.148Z,15.72
2019-05-21T12:56:35.370Z,15.57
2019-05-21T12:59:40.467Z,15.56
2019-05-21T13:02:45.751Z,15.48
2019-05-21T13:05:51.003Z,15.43
2019-05-21T13:08:56.297Z,15.43
2019-05-21T13:12:01.568Z,15.44
2019-05-21T13:15:07.476Z,15.57
2019-05-21T13:18:12.716Z,15.63
2019-05-21T13:21:17.849Z,15.76
2019-05-21T13:24:23.142Z,15.63
2019-05-21T13:27:28.369Z,15.73
2019-05-21T13:30:33.630Z,15.90
2019-05-21T13:33:38.869Z,15.75
2019-05-21T13:36:44.113Z,15.74
2019-05-21T13:39:50.692Z,15.79
2019-05-21T13:42:56.008Z,16.08
2019-05-21T13:46:01.200Z,15.91
2019-05-21T13:49:06.524Z,16.06
2019-05-21T13:52:12.054Z,16.14
2019-05-21T13:55:17.566Z,16.19
2019-05-21T13:58:22.803Z,16.26
2019-05-21T14:01:40.204Z,16.39
2019-05-21T14:04:35.504Z,16.53
2019-05-21T14:07:40.970Z,16.30
2019-05-21T14:10:46.601Z,16.25
2019-05-21T14:13:51.815Z,16.30
2019-05-21T14:16:57.043Z,16.41
2019-05-21T14:20:03.190Z,16.38
2019-05-21T14:23:08.493Z,16.27
2019-05-21T14:26:13.757Z,16.13
2019-05-21T14:29:19.108Z,16.35
2019-05-21T14:32:24.269Z,16.01
2019-05-21T14:35:29.371Z,16.14
2019-05-21T14:38:34.589Z,16.04
2019-05-21T14:41:39.761Z,16.04
2019-05-21T14:44:44.942Z,16.19
2019-05-21T14:47:50.082Z,16.05
2019-05-21T14:50:55.258Z,16.07
2019-05-21T14:54:03.999Z,16.18
2019-05-21T14:57:12.452Z,16.33
2019-05-21T15:00:24.929Z,16.26
2019-05-21T15:03:30.180Z,16.40
2019-05-21T15:06:35.390Z,16.50
2019-05-21T15:09:41.647Z,16.65
2019-05-21T15:12:46.876Z,16.34
2019-05-21T15:15:52.131Z,16.74
2019-05-21T15:18:57.340Z,16.37
2019-05-21T15:22:02.550Z,16.36
2019-05-21T15:25:08.323Z,16.35
2019-05-21T15:28:13.500Z,15.98
2019-05-21T15:31:18.726Z,15.86
2019-05-21T15:34:23.961Z,15.90
2019-05-21T15:37:29.201Z,15.64
2019-05-21T15:40:34.535Z,15.69
2019-05-21T15:43:39.681Z,15.60
2019-05-21T15:46:49.964Z,15.75
2019-05-21T15:49:51.725Z,15.57
2019-05-21T15:52:57.444Z,15.85
2019-05-21T15:56:02.790Z,15.73
2019-05-21T15:59:08.172Z,15.41
2019-05-21T16:02:14.527Z,15.60
2019-05-21T16:05:19.704Z,15.39
2019-05-21T16:08:24.865Z,15.37
2019-05-21T16:11:30.154Z,15.13
2019-05-21T16:14:35.322Z,15.26
2019-05-21T16:17:40.520Z,15.27
2019-05-21T16:20:45.738Z,15.23
2019-05-21T16:23:50.937Z,15.30
2019-05-21T16:26:57.140Z,15.20
2019-05-21T16:30:02.334Z,15.15
2019-05-21T16:33:07.686Z,15.01
2019-05-21T16:36:13.048Z,14.98
2019-05-21T16:39:20.038Z,14.89
2019-05-21T16:42:25.217Z,14.97
2019-05-21T16:45:30.369Z,15.27
2019-05-21T16:48:35.536Z,15.19
2019-05-21T16:51:43.437Z,15.00
2019-05-21T16:54:47.647Z,14.88
2019-05-21T16:57:56.066Z,14.77
2019-05-21T17:01:00.558Z,14.82
2019-05-21T17:04:05.814Z,14.79
2019-05-21T17:07:11.024Z,14.76
2019-05-21T17:10:16.961Z,14.79
2019-05-21T17:13:22.182Z,14.63
2019-05-21T17:16:27.374Z,14.61
2019-05-21T17:19:32.686Z,14.51
2019-05-21T17:22:37.926Z,14.62
2019-05-21T17:25:43.128Z,14.53
2019-05-21T17:28:48.248Z,14.52
2019-05-21T17:31:55.979Z,14.49
2019-05-21T17:35:01.347Z,14.52
2019-05-21T17:38:06.507Z,14.25
2019-05-21T17:41:11.755Z,14.31
2019-05-21T17:44:16.825Z,14.28
2019-05-21T17:47:22.077Z,14.24
2019-05-21T17:50:27.469Z,14.15
2019-05-21T17:53:32.608Z,14.05
2019-05-21T17:56:37.779Z,14.09
2019-05-21T17:59:43.050Z,14.06
2019-05-21T18:02:49.766Z,14.19
2019-05-21T18:05:56.477Z,14.08
2019-05-21T18:09:08.022Z,14.16
2019-05-21T18:12:29.722Z,14.30
2019-05-21T18:15:22.127Z,14.11
2019-05-21T18:18:28.070Z,14.27
2019-05-21T18:21:34.199Z,14.12
2019-05-21T18:24:39.597Z,14.19
2019-05-21T18:27:44.759Z,14.29
2019-05-21T18:30:50.165Z,14.14
2019-05-21T18:33:55.407Z,14.08
2019-05-21T18:37:03.656Z,14.17
2019-05-21T18:40:09.651Z,13.91
2019-05-21T18:43:14.851Z,14.16
2019-05-21T18:46:20.064Z,13.96
2019-05-21T18:49:27.644Z,13.97
2019-05-21T18:52:32.427Z,13.97
2019-05-21T18:55:37.550Z,14.05
2019-05-21T18:58:43.073Z,14.16
2019-05-21T19:01:48.372Z,14.09
2019-05-21T19:04:53.632Z,13.98
2019-05-21T19:07:59.022Z,13.91
2019-05-21T19:11:04.438Z,13.88
2019-05-21T19:14:09.656Z,14.07
2019-05-21T19:17:14.859Z,14.08
2019-05-21T19:20:23.021Z,14.13
2019-05-21T19:23:27.075Z,14.16
2019-05-21T19:26:32.253Z,14.05
2019-05-21T19:29:38.495Z,13.88
2019-05-21T19:32:43.680Z,13.90
2019-05-21T19:35:48.859Z,13.83
2019-05-21T19:38:54.084Z,13.97
2019-05-21T19:41:59.374Z,13.94
2019-05-21T19:45:05.859Z,13.86
2019-05-21T19:48:12.162Z,13.97
2019-05-21T19:51:17.378Z,13.85
2019-05-21T19:54:22.641Z,13.75
2019-05-21T19:57:30.003Z,13.85
2019-05-21T20:00:39.190Z,13.86
2019-05-21T20:03:44.475Z,13.89
2019-05-21T20:06:49.646Z,13.72
2019-05-21T20:09:54.871Z,13.74
2019-05-21T20:13:00.552Z,13.61
2019-05-21T20:16:06.443Z,13.53
2019-05-21T20:19:13.990Z,13.55
2019-05-21T20:22:19.271Z,13.62
2019-05-21T20:25:25.844Z,13.48
2019-05-21T20:28:31.176Z,13.58
2019-05-21T20:31:36.646Z,13.52
2019-05-21T20:34:41.965Z,13.55
2019-05-21T20:37:48.256Z,13.60
2019-05-21T20:40:53.567Z,13.51
2019-05-21T20:43:59.533Z,13.52
2019-05-21T20:47:06.699Z,13.60
2019-05-21T20:50:14.397Z,13.56
2019-05-21T20:53:20.111Z,13.44
2019-05-21T20:56:25.283Z,13.44
2019-05-21T20:59:30.762Z,13.45
2019-05-21T21:02:37.475Z,13.29
2019-05-21T21:05:43.728Z,13.25
2019-05-21T21:08:48.923Z,13.44
2019-05-21T21:11:54.116Z,13.30
2019-05-21T21:15:00.624Z,13.47
2019-05-21T21:18:06.688Z,13.36
2019-05-21T21:21:11.828Z,13.28
2019-05-21T21:24:17.284Z,13.18
2019-05-21T21:27:23.994Z,13.38
2019-05-21T21:30:29.165Z,13.38
2019-05-21T21:33:34.603Z,13.36
2019-05-21T21:36:39.775Z,13.17
2019-05-21T21:39:45.141Z,13.31
2019-05-21T21:42:50.996Z,13.28
2019-05-21T21:45:56.400Z,13.32
2019-05-21T21:49:03.205Z,13.28
2019-05-21T21:52:09.924Z,13.25
2019-05-21T21:55:15.490Z,13.10
2019-05-21T21:58:20.686Z,13.15
2019-05-21T22:01:50.153Z,13.10
2019-05-21T22:04:57.550Z,13.13
2019-05-21T22:08:02.931Z,13.13
2019-05-21T22:11:08.617Z,13.02
2019-05-21T22:14:14.267Z,13.10
2019-05-21T22:17:19.824Z,13.12
2019-05-21T22:20:25.490Z,13.34
2019-05-21T22:24:24.699Z,13.13
2019-05-21T22:27:30.117Z,13.03
2019-05-21T22:30:36.095Z,13.05
2019-05-21T22:33:41.598Z,12.96
2019-05-21T22:36:46.858Z,13.03
2019-05-21T22:39:53.426Z,13.05
2019-05-21T22:42:58.557Z,12.92
2019-05-21T22:46:03.942Z,13.12
2019-05-21T22:49:09.076Z,13.08
2019-05-21T22:52:14.414Z,13.18
2019-05-21T22:55:20.686Z,13.00
2019-05-21T22:58:25.884Z,13.08
2019-05-21T23:01:32.860Z,13.24
2019-05-21T23:04:38.040Z,13.05
2019-05-21T23:07:44.813Z,13.02
2019-05-21T23:10:50.106Z,12.92
2019-05-21T23:13:55.283Z,13.07
2019-05-21T23:17:00.857Z,12.98
2019-05-21T23:20:12.320Z,12.95
2019-05-21T23:23:19.326Z,13.13
2019-05-21T23:26:24.664Z,13.14
2019-05-21T23:29:29.837Z,13.10
2019-05-21T23:32:35.666Z,13.03
2019-05-21T23:35:41.263Z,12.86
2019-05-21T23:38:47.864Z,12.83
2019-05-21T23:41:53.081Z,12.86
2019-05-21T23:44:58.665Z,12.89
2019-05-21T23:48:05.002Z,12.87
2019-05-21T23:51:11.077Z,12.81
2019-05-21T23:54:16.777Z,12.96
2019-05-21T23:57:29.776Z,13.02
